Wetterstation Rottenburg Seebronn / 442m msl / http://mut-lambrecht.de
LETZTE AKTUALISIERUNG UM: 02:00 DATUM: Juli 25 2024, time of next update: 02:05
Aktuelles WetterClear/Night Aktuelle Temperatur 15.0°C (59.0°F), Apparent temp 15.6°C
Höchsttemperatur (seit Mitternacht)16.3°C um: 00:00 Tiefsttemperatur (seit Mitternacht)14.9°C um: 00:52
Windgeschwindigkeit (10 Minuten )0.0 kmh (0.0 kts) Windrichtung (Dir) (10 Minuten )NW (315°)
Windchill Temperatur 15.0°C Windspitzen (letzte Std)0.0 kmh (0.0 kts) um: 02:00
Windspitzen (seit Mitternacht)0.0 kmh (0.0 kts) um: 14:28 Höchstes Windmittel / Minute (seit Mitternacht)0.0 kmh (0.0 kts) um: 15:56
Regenmenge (letzte Std)0.0 mm Regenmenge (seit Mitternacht)0.0 mm (0.00 in.)---
Regenmenge diesen Monat 87.2 mm (3.43 in.) Regenmenge seit Jahresbeginn 541.7 mm (21.33 in.)
Höchste Regenmenge pro Minute (letzte Std)0.0 mm/min Höchste Regenmenge pro Stunde (letzte 6 Std)0.0 mm/stunde
Regenmenge Gestern 0.0 mm Taupunkt 11.2°C (Wet Bulb :13.0°C )
Luftfeuchtigkeit 78 %, Humidex 16.9°C Aktueller Luftdruck (auf Meereshöhe bezogen)1020.0 hPa
Luftdrucktendenz 0.1 hPa (letzte Std) Trend (letzte 1 Std)gleichbleibend
Luftdrucktendenz (letzte 12 Std)-2.9 hPa Luftdrucktendenz (letzte 6 Std)-1.0 hPa



Weather report/warning/Metars

Stuttgart-Echterdingen, Germany (EDDS) 48-41N 009-13E 391M
Jul 24, 2024 - 06:50 PM EDT / 2024.07.24 2250 UTC
Wind: Variable at 2 MPH (2 KT):0
Visibility: greater than 7 mile(s):0
Temperature: 59 F (15 C)
Dew Point: 53 F (12 C)
Relative Humidity: 82%
Pressure (altimeter): 30.09 in. Hg (1019 hPa)
ob: EDDS 242250Z AUTO VRB02KT CAVOK 15/12 Q1019
cycle: 23
Karlsruhe, Baden Wurttemberg, Germany (EDSB) 48-46-43N 008-04-47E
Jul 24, 2024 - 06:50 PM EDT / 2024.07.24 2250 UTC
Wind: from the WSW (240 degrees) at 3 MPH (3 KT) (direction variable):0
Visibility: greater than 7 mile(s):0
Temperature: 60 F (16 C)
Dew Point: 59 F (15 C)
Relative Humidity: 93%
Pressure (altimeter): 30.09 in. Hg (1019 hPa)
ob: EDSB 242250Z AUTO 24003KT 210V270 9999 1000 R21/P2000N // NCD 16/15 Q1019
cycle: 23
Lahr, CAN-AFB, Germany (EDTL) 48-22-09N 007-49-40E
Jul 24, 2024 - 06:50 PM EDT / 2024.07.24 2250 UTC
Wind: Variable at 3 MPH (3 KT):0
Visibility: greater than 7 mile(s):0
Temperature: 62 F (17 C)
Dew Point: 57 F (14 C)
Relative Humidity: 82%
Pressure (altimeter): 30.09 in. Hg (1019 hPa)
ob: EDTL 242250Z AUTO VRB03KT 9999 // NCD 17/14 Q1019
cycle: 23
Laupheim, Germany (ETHL) 48-13N 009-55E 550M
Jul 24, 2024 - 06:20 PM EDT / 2024.07.24 2220 UTC
Wind: from the NNE (020 degrees) at 1 MPH (1 KT):0
Visibility: greater than 7 mile(s):0
Sky conditions: mostly cloudy
Temperature: 62 F (17 C)
Dew Point: 53 F (12 C)
Relative Humidity: 72%
Pressure (altimeter): 30.12 in. Hg (1020 hPa)
ob: ETHL 242220Z 02001KT 9999 BKN041 17/12 Q1020 BLU BLU+ TEMPO BLU
cycle: 22


Klicken Sie hier, um zu den Durchschnitts-, Extrem-, Monats- oder Tageswerten zu gelangen


Die Wetterdaten werden alle 5 Minuten aktualisiert.
Die 3 stündige Echtzeitgrafik wird jede Minute aktualisiert.
Bei der 3 stündige Echtzeitgrafik sind derzeit die Skalenfarben von Winddurchschnitt u. Windböen vertauscht. (Softwarebug)

Drücken Sie gegebenenfalls auf "Aktualisieren" in Ihrem Browser, um die aktuellsten Daten zu erhalten.